Time;durP1;ratioP1;P1;durP2;ratioP2;P2;SDS_P1;SDS_P2;PMS_P1;PMS_P2;Temp;Humidity;BMP_temperature;BMP_pressure;BME280_temperature;BME280_humidity;BME280_pressure;Samples;Min_cycle;Max_cycle;Signal;HPM_P1;HPM_P2
2022/01/25 00:27:47;;;;;;;24.08;17.02;;;;;;;29.03;65.27;101026.03;5078989;27;65805;-35
2022/01/25 00:30:26;;;;;;;19.63;14.55;;;;;;;29.07;64.99;101026.44;5078666;27;69358;-35
2022/01/25 00:32:57;;;;;;;20.83;14.25;;;;;;;29.10;64.56;101026.84;5075442;27;65887;-35
2022/01/25 00:35:28;;;;;;;18.90;14.05;;;;;;;29.13;64.72;101014.81;5076336;27;70649;-34
2022/01/25 00:37:58;;;;;;;19.58;13.27;;;;;;;29.17;64.70;101024.19;5078966;27;65451;-37
2022/01/25 00:40:28;;;;;;;17.10;12.55;;;;;;;29.24;64.10;101029.59;5076124;27;70432;-35
2022/01/25 00:42:59;;;;;;;13.15;11.95;;;;;;;29.28;64.18;101037.09;5071628;27;66283;-35
2022/01/25 00:45:29;;;;;;;11.73;10.93;;;;;;;29.29;63.45;101044.16;5079438;27;70119;-35
2022/01/25 00:48:02;;;;;;;12.52;11.23;;;;;;;29.34;63.48;101043.53;5080040;27;66310;-35
2022/01/25 00:50:40;;;;;;;15.05;11.82;;;;;;;29.36;63.14;101052.25;5079775;27;70207;-34
2022/01/25 00:55:59;;;;;;;12.73;11.52;;;;;;;29.39;63.23;101055.38;5075900;27;70479;-35
2022/01/25 00:58:29;;;;;;;12.57;11.55;;;;;;;29.39;63.21;101054.53;5071048;27;66005;-35
2022/01/25 01:01:00;;;;;;;13.75;11.52;;;;;;;29.36;63.07;101042.28;5074899;27;70092;-35
2022/01/25 01:03:30;;;;;;;12.98;11.88;;;;;;;29.49;62.52;101067.66;5078999;27;66091;-34
2022/01/25 01:06:02;;;;;;;13.27;12.13;;;;;;;29.49;62.80;101068.47;5078910;27;69860;-34
2022/01/25 01:08:33;;;;;;;12.13;11.27;;;;;;;29.47;62.92;101075.97;5077055;27;65706;-34
2022/01/25 01:11:08;;;;;;;13.68;11.07;;;;;;;29.50;62.71;101078.25;5080037;27;68923;-35
2022/01/25 01:14:04;;;;;;;12.20;11.18;;;;;;;29.56;62.20;101090.09;5077937;27;66166;-34
2022/01/25 01:41:44;;;;;;;11.23;10.18;;;;;;;29.72;61.35;101105.94;5078291;27;66508;-35
2022/01/25 01:44:24;;;;;;;10.50;9.68;;;;;;;29.49;61.62;101079.28;5077779;27;70489;-34
2022/01/25 01:47:04;;;;;;;12.38;11.35;;;;;;;29.76;61.28;101109.94;5079921;27;66222;-35
2022/01/25 01:49:43;;;;;;;10.68;9.88;;;;;;;29.78;61.51;101107.84;5079163;27;70083;-34
2022/01/25 01:52:13;;;;;;;11.30;10.43;;;;;;;29.79;61.54;101112.22;5079012;27;66424;-37
2022/01/25 01:54:44;;;;;;;9.43;8.70;;;;;;;29.81;61.50;101112.84;5078034;27;70314;-36
2022/01/25 01:57:14;;;;;;;15.48;14.13;;;;;;;29.82;61.09;101111.78;5079815;27;65222;-35
2022/01/25 01:59:45;;;;;;;12.73;10.85;;;;;;;29.84;60.91;101120.53;5078104;27;69333;-35
2022/01/25 02:02:15;;;;;;;12.40;10.80;;;;;;;29.90;60.72;101118.88;5078933;27;66055;-34
2022/01/25 02:04:45;;;;;;;10.77;10.18;;;;;;;29.92;60.81;101126.75;5078327;27;70455;-35
2022/01/25 02:07:16;;;;;;;12.77;11.77;;;;;;;29.96;60.66;101138.84;5078629;27;66600;-35
2022/01/25 02:09:46;;;;;;;13.10;10.68;;;;;;;29.98;60.79;101134.06;5082141;27;70216;-34
2022/01/25 02:12:16;;;;;;;11.02;10.02;;;;;;;29.99;60.39;101135.72;5078715;27;66590;-35
2022/01/25 02:14:48;;;;;;;10.52;9.65;;;;;;;30.01;60.22;101130.94;5078943;27;70792;-35
2022/01/25 02:17:50;;;;;;;9.82;8.95;;;;;;;30.03;60.30;101139.66;5078390;27;67333;-35
2022/01/25 02:23:23;;;;;;;11.07;10.30;;;;;;;29.85;60.32;101107.84;5077835;27;66667;-35
2022/01/25 02:25:56;;;;;;;10.75;9.85;;;;;;;30.10;60.06;101145.91;5076993;27;70671;-35
2022/01/25 02:28:33;;;;;;;9.10;8.43;;;;;;;29.78;59.66;101083.53;5077349;27;66101;-35
2022/01/25 02:31:05;;;;;;;11.55;10.68;;;;;;;30.15;60.01;101132.59;5076302;27;70337;-35
2022/01/25 02:33:37;;;;;;;12.13;11.13;;;;;;;30.18;59.65;101137.59;5081488;27;66685;-35
2022/01/25 02:36:12;;;;;;;10.57;9.77;;;;;;;30.15;59.73;101123.66;5079103;27;70677;-35
2022/01/25 02:38:42;;;;;;;13.88;11.50;;;;;;;30.25;59.68;101133.00;5078260;27;66574;-33
2022/01/25 02:41:13;;;;;;;12.35;11.43;;;;;;;30.23;59.86;101127.00;5078947;27;69850;-34
2022/01/25 02:43:46;;;;;;;13.18;12.00;;;;;;;30.28;59.89;101137.19;5076699;27;66245;-34
2022/01/25 02:46:24;;;;;;;14.57;13.38;;;;;;;30.30;60.11;101140.50;5073187;27;69989;-35
2022/01/25 02:49:04;;;;;;;15.70;14.02;;;;;;;30.33;60.86;101147.38;5080743;27;65882;-35
2022/01/25 02:51:39;;;;;;;27.55;17.40;;;;;;;30.31;61.05;101135.94;5069044;27;70212;-34
2022/01/25 02:54:11;;;;;;;18.92;15.15;;;;;;;30.40;61.22;101140.09;5074170;27;65995;-34
2022/01/25 02:56:44;;;;;;;26.25;18.15;;;;;;;30.28;61.35;101116.38;5077817;27;69612;-34
2022/01/25 02:59:16;;;;;;;21.70;15.30;;;;;;;30.46;61.38;101128.41;5075862;27;67130;-34
2022/01/25 03:01:49;;;;;;;21.10;15.90;;;;;;;30.54;61.21;101140.91;5075484;27;70031;-35
2022/01/25 03:04:23;;;;;;;18.85;16.88;;;;;;;30.38;61.30;101107.00;5079437;27;65441;-35
2022/01/25 03:06:53;;;;;;;22.30;16.65;;;;;;;30.57;61.47;101140.47;5078454;27;70235;-34
2022/01/25 03:09:23;;;;;;;35.80;21.20;;;;;;;30.57;61.43;101121.53;5079137;27;65644;-35
2022/01/25 03:11:55;;;;;;;22.77;20.30;;;;;;;30.63;61.69;101128.78;5077713;27;69177;-36
2022/01/25 03:14:30;;;;;;;20.80;18.80;;;;;;;30.65;61.65;101132.94;5077409;27;66248;-35
2022/01/25 03:22:19;;;;;;;29.30;19.50;;;;;;;30.79;60.63;101119.38;5079469;27;70504;-36
2022/01/25 03:24:49;;;;;;;26.50;19.48;;;;;;;30.81;60.84;101120.00;5083960;27;65729;-35
2022/01/25 03:27:19;;;;;;;29.63;20.52;;;;;;;30.85;60.43;101113.13;5081798;27;70190;-36
2022/01/25 03:29:50;;;;;;;32.85;19.25;;;;;;;30.86;60.46;101115.59;5074230;27;66430;-37
2022/01/25 03:32:20;;;;;;;21.65;18.58;;;;;;;30.89;59.93;101117.06;5081805;27;70500;-36
2022/01/25 03:34:51;;;;;;;27.02;18.98;;;;;;;30.92;60.20;101113.91;5081924;27;65843;-35
2022/01/25 03:37:21;;;;;;;25.65;17.83;;;;;;;30.93;60.19;101102.88;5079083;27;69554;-34
2022/01/25 03:39:51;;;;;;;27.15;19.00;;;;;;;30.98;59.79;101099.53;5082029;27;66073;-35
2022/01/25 03:42:23;;;;;;;27.02;18.73;;;;;;;31.01;59.71;101098.25;5076104;27;69619;-35
2022/01/25 03:44:55;;;;;;;25.02;17.20;;;;;;;31.00;59.33;101094.69;5078339;27;65421;-35
2022/01/25 03:47:41;;;;;;;25.85;18.40;;;;;;;31.03;59.63;101088.84;5079638;27;70525;-36
2022/01/25 03:50:12;;;;;;;23.00;19.52;;;;;;;31.08;59.65;101089.03;5070910;27;65957;-35
2022/01/25 03:52:42;;;;;;;24.95;17.60;;;;;;;31.10;59.04;101084.25;5081088;27;69248;-35
2022/01/25 03:55:13;;;;;;;26.35;18.02;;;;;;;31.12;59.24;101078.59;5079955;28;66968;-36
2022/01/25 03:57:43;;;;;;;20.50;18.30;;;;;;;31.11;59.42;101072.34;5075052;27;69927;-36
2022/01/25 04:00:14;;;;;;;22.13;18.05;;;;;;;31.14;59.25;101071.91;5080746;27;65558;-36
2022/01/25 04:02:56;;;;;;;27.43;17.23;;;;;;;31.15;58.72;101061.91;5078058;27;70003;-34
2022/01/25 04:05:50;;;;;;;24.60;17.13;;;;;;;31.16;58.77;101069.00;5072238;27;66165;-36
2022/01/25 04:08:22;;;;;;;23.23;17.42;;;;;;;31.16;58.88;101050.03;5078031;27;69710;-35
2022/01/25 04:10:52;;;;;;;21.05;16.88;;;;;;;31.22;58.81;101053.75;5079879;27;65990;-35
2022/01/25 04:13:23;;;;;;;23.35;17.85;;;;;;;31.02;58.81;101013.22;5077528;27;69956;-35
2022/01/25 04:15:56;;;;;;;18.65;16.85;;;;;;;31.28;58.36;101050.16;5079869;27;65950;-35
2022/01/25 04:18:46;;;;;;;23.17;16.92;;;;;;;31.29;58.60;101047.22;5079604;27;70336;-35
2022/01/25 04:26:58;;;;;;;23.40;17.15;;;;;;;31.34;58.28;101033.84;5073827;27;66029;-36
2022/01/25 04:29:28;;;;;;;18.92;15.18;;;;;;;31.24;57.99;101009.09;5072265;28;69364;-36
2022/01/25 04:31:59;;;;;;;19.17;15.10;;;;;;;31.37;58.28;101027.16;5078771;27;66395;-36
2022/01/25 04:51:33;;;;;;;28.60;20.20;;;;;;;31.46;57.90;101004.19;5080029;27;70655;-35
2022/01/25 04:54:05;;;;;;;17.85;16.00;;;;;;;31.28;57.60;100969.66;5074783;27;65052;-41
2022/01/25 04:59:17;;;;;;;17.83;16.10;;;;;;;31.49;57.59;100982.03;5080349;27;66322;-35
2022/01/25 05:01:50;;;;;;;18.85;16.95;;;;;;;31.49;57.44;100976.63;5074657;28;71004;-35
2022/01/25 05:04:27;;;;;;;17.38;15.93;;;;;;;31.50;57.82;100975.56;5080009;27;65927;-35
2022/01/25 05:07:07;;;;;;;17.45;15.75;;;;;;;31.46;57.62;100974.34;5086114;27;70157;-36
2022/01/25 05:09:39;;;;;;;17.35;15.73;;;;;;;31.49;57.44;100960.34;5078283;27;65305;-35
2022/01/25 05:12:11;;;;;;;17.47;15.63;;;;;;;31.54;57.76;100965.13;5080068;27;69840;-35
2022/01/25 05:14:58;;;;;;;19.02;17.05;;;;;;;31.53;57.55;100955.31;5078325;27;66374;-35
2022/01/25 05:17:36;;;;;;;16.60;15.30;;;;;;;31.50;57.33;100945.72;5079532;27;69504;-35
2022/01/25 05:22:56;;;;;;;18.10;16.42;;;;;;;31.60;57.38;100935.22;5076691;27;69952;-35
2022/01/25 05:25:26;;;;;;;17.85;16.13;;;;;;;31.65;57.23;100931.00;5078903;27;65752;-35
2022/01/25 05:27:57;;;;;;;18.42;16.52;;;;;;;31.67;57.44;100934.31;5078420;27;70152;-35
2022/01/25 05:30:27;;;;;;;17.80;15.90;;;;;;;31.67;57.19;100923.47;5073168;27;64979;-35
2022/01/25 05:32:58;;;;;;;18.40;15.52;;;;;;;31.69;57.33;100915.94;5073730;27;70222;-35
2022/01/25 05:35:28;;;;;;;16.45;15.07;;;;;;;31.67;56.78;100904.47;5078152;27;65600;-35
2022/01/25 05:37:59;;;;;;;17.90;16.52;;;;;;;31.70;56.83;100902.13;5081070;27;70222;-36
2022/01/25 05:40:57;;;;;;;18.02;16.42;;;;;;;31.71;57.17;100903.00;5071040;27;66359;-36
2022/01/25 05:46:20;;;;;;;18.67;16.90;;;;;;;31.72;57.04;100891.09;5083005;27;65159;-35
2022/01/25 05:48:50;;;;;;;20.90;18.63;;;;;;;31.74;56.93;100897.13;5078264;27;69311;-35
2022/01/25 05:51:20;;;;;;;18.98;17.17;;;;;;;31.76;56.94;100890.41;5080167;27;67233;-35
2022/01/25 05:53:51;;;;;;;21.70;17.33;;;;;;;31.78;56.77;100882.03;5070636;27;70115;-35
2022/01/25 05:56:22;;;;;;;21.25;19.05;;;;;;;31.81;56.66;100876.16;5078956;27;65176;-35
2022/01/25 05:58:53;;;;;;;20.38;18.42;;;;;;;31.84;56.76;100872.97;5079281;27;69688;-35
2022/01/25 06:01:23;;;;;;;20.70;17.88;;;;;;;31.87;56.56;100858.97;5081318;27;66039;-35
2022/01/25 06:03:54;;;;;;;21.17;19.08;;;;;;;31.89;56.31;100862.28;5078129;27;70320;-35
2022/01/25 06:06:25;;;;;;;21.15;19.27;;;;;;;31.87;56.47;100853.53;5083773;27;65435;-36
2022/01/25 06:08:56;;;;;;;21.98;19.65;;;;;;;31.91;56.44;100841.22;5080010;27;70163;-35
2022/01/25 06:11:26;;;;;;;20.98;18.80;;;;;;;31.95;56.47;100845.13;5078429;27;66191;-35
2022/01/25 06:13:56;;;;;;;22.45;19.17;;;;;;;31.99;56.31;100832.78;5079886;27;70367;-35
2022/01/25 06:16:30;;;;;;;22.70;19.92;;;;;;;32.01;56.26;100833.38;5079671;27;66242;-35
2022/01/25 06:19:00;;;;;;;22.70;19.65;;;;;;;32.03;56.17;100828.53;5078308;27;69919;-34
2022/01/25 06:21:34;;;;;;;22.83;20.52;;;;;;;32.07;56.39;100831.63;5077622;27;66614;-35
2022/01/25 06:24:05;;;;;;;22.40;20.17;;;;;;;32.10;55.94;100824.91;5079710;27;70409;-36
2022/01/25 06:26:35;;;;;;;20.08;18.08;;;;;;;32.09;56.21;100820.53;5079546;27;66356;-35
2022/01/25 06:29:06;;;;;;;23.23;19.73;;;;;;;32.10;56.13;100816.78;5078018;27;70954;-35
2022/01/25 06:31:36;;;;;;;22.75;19.95;;;;;;;32.11;55.82;100807.56;5078507;27;66558;-36
2022/01/25 06:34:07;;;;;;;22.70;20.38;;;;;;;32.11;56.07;100802.16;5078893;27;70512;-35
2022/01/25 06:36:37;;;;;;;22.30;20.30;;;;;;;32.11;56.21;100810.28;5078673;27;66275;-35
2022/01/25 06:39:08;;;;;;;22.30;20.10;;;;;;;32.11;55.93;100804.84;5076156;27;70047;-36
2022/01/25 06:41:38;;;;;;;22.83;19.90;;;;;;;32.05;56.11;100791.16;5078645;27;66560;-35
2022/01/25 06:44:08;;;;;;;21.77;19.75;;;;;;;32.09;55.79;100779.81;5076968;27;70285;-36
2022/01/25 06:46:39;;;;;;;22.35;20.15;;;;;;;32.07;56.15;100785.50;5076135;27;66859;-34
2022/01/25 06:49:09;;;;;;;23.63;19.58;;;;;;;32.01;55.88;100767.41;5077943;27;69889;-36
2022/01/25 06:51:41;;;;;;;22.63;20.27;;;;;;;32.06;55.87;100775.69;5078385;27;65395;-35
2022/01/25 06:54:11;;;;;;;19.67;18.17;;;;;;;32.05;56.26;100774.03;5077282;27;70207;-36
2022/01/25 06:56:45;;;;;;;21.77;19.55;;;;;;;32.06;56.11;100770.25;5077603;27;66598;-35
2022/01/25 06:59:16;;;;;;;20.65;18.98;;;;;;;32.01;56.26;100756.56;5078667;27;70162;-35
2022/01/25 07:01:46;;;;;;;21.70;18.90;;;;;;;32.03;56.27;100774.25;5077411;27;66068;-35
2022/01/25 07:04:17;;;;;;;20.85;18.95;;;;;;;32.03;56.41;100763.41;5076858;28;70634;-35
2022/01/25 07:06:47;;;;;;;20.77;18.55;;;;;;;32.03;56.46;100765.31;5067859;27;66010;-34
2022/01/25 07:09:18;;;;;;;24.25;19.77;;;;;;;32.04;56.18;100765.09;5069352;27;70332;-35
2022/01/25 07:11:49;;;;;;;21.63;19.55;;;;;;;32.04;56.00;100767.78;5076279;27;66142;-35
2022/01/25 07:14:20;;;;;;;;;;;;;;;31.81;56.88;100770.38;5078199;27;71313;-35
2022/01/25 07:16:51;;;;;;;23.30;21.10;;;;;;;32.00;56.84;100761.16;5079716;27;66080;-35
2022/01/25 07:19:22;;;;;;;22.27;19.98;;;;;;;32.02;56.46;100769.09;5078784;27;69252;-35
2022/01/25 07:21:53;;;;;;;27.23;22.08;;;;;;;31.98;57.88;100763.31;5076925;27;66297;-35
2022/01/25 07:24:23;;;;;;;23.08;19.75;;;;;;;32.00;57.71;100763.88;5079629;27;70532;-35
2022/01/25 07:26:54;;;;;;;27.95;21.58;;;;;;;31.98;57.74;100755.16;5077269;27;65405;-35
2022/01/25 07:29:28;;;;;;;27.42;22.40;;;;;;;32.00;57.77;100747.59;5075400;27;69837;-35
2022/01/25 07:31:59;;;;;;;23.35;20.48;;;;;;;31.97;57.54;100756.19;5080387;27;65576;-34
2022/01/25 07:34:42;;;;;;;23.83;21.45;;;;;;;31.92;58.00;100741.66;5075440;27;69343;-35
2022/01/25 07:37:25;;;;;;;23.80;21.38;;;;;;;31.97;58.12;100745.34;5080299;27;65569;-35
2022/01/25 07:40:10;;;;;;;23.13;20.95;;;;;;;31.97;58.04;100748.06;5076865;27;70095;-34
2022/01/25 07:42:46;;;;;;;23.38;21.02;;;;;;;31.96;58.06;100743.69;5080425;27;65153;-35
2022/01/25 07:45:34;;;;;;;22.85;20.60;;;;;;;31.91;58.78;100734.56;5075139;27;70124;-35
2022/01/25 07:48:14;;;;;;;24.20;20.20;;;;;;;31.96;58.08;100749.13;5077639;27;66765;-35
2022/01/25 07:50:58;;;;;;;22.80;20.60;;;;;;;31.98;58.06;100744.31;5079786;27;70153;-35
2022/01/25 07:53:28;;;;;;;25.55;21.20;;;;;;;32.01;58.03;100740.28;5079087;27;66583;-35
2022/01/25 07:55:59;;;;;;;23.33;20.80;;;;;;;32.02;57.77;100734.63;5081119;27;69650;-35
2022/01/25 07:58:30;;;;;;;23.45;20.83;;;;;;;32.02;57.80;100723.78;5076630;27;66482;-36
2022/01/25 08:01:00;;;;;;;23.17;20.65;;;;;;;32.04;57.89;100724.38;5079069;27;69329;-35
2022/01/25 08:03:31;;;;;;;23.67;21.35;;;;;;;32.02;58.10;100725.66;5081617;27;66491;-35
2022/01/25 08:06:13;;;;;;;22.67;20.58;;;;;;;32.02;58.38;100729.22;5084114;27;69704;-35
2022/01/25 08:08:58;;;;;;;22.13;20.08;;;;;;;32.04;57.66;100734.41;5080565;27;66135;-35
2022/01/25 08:11:43;;;;;;;23.20;20.10;;;;;;;32.02;58.00;100725.66;5076992;27;69506;-35
2022/01/25 08:14:35;;;;;;;24.60;18.55;;;;;;;32.02;57.89;100718.34;5081232;27;65472;-36
2022/01/25 08:17:12;;;;;;;22.80;20.50;;;;;;;32.02;58.49;100714.81;5074049;27;70523;-35
2022/01/25 08:19:50;;;;;;;24.25;20.10;;;;;;;32.00;58.06;100709.59;5076399;27;66381;-35
2022/01/25 08:22:37;;;;;;;22.65;20.00;;;;;;;32.08;58.26;100718.50;5078523;27;69125;-35
2022/01/25 08:25:20;;;;;;;22.40;20.30;;;;;;;32.07;58.24;100712.25;5082427;27;66669;-36
2022/01/25 08:28:06;;;;;;;24.20;19.45;;;;;;;32.11;58.20;100718.84;5071563;27;70330;-35
2022/01/25 08:31:07;;;;;;;21.90;19.52;;;;;;;32.12;58.15;100708.81;5014363;28;66029;-36
2022/01/25 08:34:03;;;;;;;22.33;20.10;;;;;;;32.15;58.38;100702.91;5017657;28;69694;-36
2022/01/25 08:36:49;;;;;;;22.42;20.13;;;;;;;32.16;58.23;100710.00;4941600;28;66086;-35
2022/01/25 08:39:25;;;;;;;22.15;20.20;;;;;;;32.16;58.30;100705.41;4955526;28;69602;-35
2022/01/25 08:42:08;;;;;;;21.92;19.77;;;;;;;32.22;58.17;100709.06;4956082;28;66207;-35
2022/01/25 08:44:42;;;;;;;24.23;19.98;;;;;;;32.24;58.51;100715.09;4953316;28;70347;-39
2022/01/25 08:47:13;;;;;;;21.83;19.65;;;;;;;32.26;58.07;100716.53;4952941;28;65404;-37
2022/01/25 08:49:56;;;;;;;20.30;18.55;;;;;;;32.27;57.93;100722.78;4918703;28;70400;-35
2022/01/25 08:53:03;;;;;;;20.75;19.08;;;;;;;32.28;58.36;100729.84;4891032;28;66427;-35
2022/01/25 08:55:46;;;;;;;20.08;17.90;;;;;;;32.29;57.96;100726.09;4878401;28;69197;-36
2022/01/25 08:58:36;;;;;;;23.27;19.52;;;;;;;32.27;58.13;100715.44;4793976;29;65222;-36
2022/01/25 09:01:07;;;;;;;20.25;18.38;;;;;;;32.34;57.94;100722.66;4897076;28;70141;-36
2022/01/25 09:03:39;;;;;;;20.40;18.55;;;;;;;32.34;57.79;100723.47;4929072;28;65418;-34
2022/01/25 09:06:10;;;;;;;20.10;18.27;;;;;;;32.33;58.19;100724.53;4934207;28;69564;-35
2022/01/25 09:08:40;;;;;;;19.17;17.15;;;;;;;32.33;58.20;100732.69;4919246;28;65983;-35
2022/01/25 09:11:11;;;;;;;22.75;18.63;;;;;;;32.33;58.19;100732.69;4918445;28;69557;-35
2022/01/25 09:13:41;;;;;;;19.52;17.63;;;;;;;32.34;58.00;100733.50;4942365;28;66407;-35
2022/01/25 09:16:12;;;;;;;19.83;17.88;;;;;;;32.34;58.32;100742.47;5018833;28;70051;-35
2022/01/25 09:18:43;;;;;;;19.02;17.13;;;;;;;32.35;58.23;100740.63;5016771;28;65981;-35
2022/01/25 09:21:14;;;;;;;17.00;15.65;;;;;;;32.34;58.41;100744.38;5017401;28;69966;-36
2022/01/25 09:23:45;;;;;;;18.30;16.65;;;;;;;32.36;58.38;100748.50;5044404;28;66379;-35
2022/01/25 09:26:17;;;;;;;17.58;15.85;;;;;;;32.39;58.06;100752.66;5076426;27;70024;-35
2022/01/25 09:28:51;;;;;;;17.67;16.00;;;;;;;32.33;57.88;100751.69;5089860;27;66244;-35
2022/01/25 09:31:22;;;;;;;17.08;15.32;;;;;;;32.34;58.41;100747.91;5078006;27;69169;-36
2022/01/25 09:33:53;;;;;;;17.58;16.08;;;;;;;32.37;58.23;100755.56;5078336;27;66587;-35
2022/01/25 09:36:25;;;;;;;;;;;;;;;32.13;59.02;100746.59;5071619;27;69323;-35
2022/01/25 09:38:57;;;;;;;16.40;15.05;;;;;;;32.36;58.32;100750.41;5078816;27;66085;-35
2022/01/25 09:41:29;;;;;;;16.90;15.45;;;;;;;32.35;58.17;100746.03;5076500;27;69713;-35
2022/01/25 09:43:59;;;;;;;17.27;15.57;;;;;;;32.37;58.29;100743.91;5078466;27;66311;-36
2022/01/25 09:46:30;;;;;;;16.38;15.13;;;;;;;32.36;58.29;100748.50;5078754;27;70539;-34
2022/01/25 09:49:01;;;;;;;15.85;14.60;;;;;;;32.38;57.99;100751.00;5080193;27;66228;-36
2022/01/25 09:51:33;;;;;;;16.23;14.93;;;;;;;32.37;58.22;100743.91;5079737;27;70251;-36
2022/01/25 09:54:03;;;;;;;16.90;15.35;;;;;;;32.35;58.07;100741.44;5077449;27;66460;-36
2022/01/25 09:56:34;;;;;;;16.05;14.50;;;;;;;32.36;58.35;100740.38;5076563;27;69473;-36
2022/01/25 09:59:05;;;;;;;15.80;14.43;;;;;;;32.34;58.41;100761.47;5077916;27;65675;-36
2022/01/25 10:01:39;;;;;;;16.10;14.57;;;;;;;32.32;58.44;100758.19;5075745;27;70547;-35
2022/01/25 10:04:49;;;;;;;16.35;15.00;;;;;;;32.21;58.61;100762.53;5079873;27;65603;-35
2022/01/25 10:07:29;;;;;;;16.25;14.32;;;;;;;32.25;58.75;100757.47;4993667;28;69037;-35
2022/01/25 10:10:00;;;;;;;15.88;14.18;;;;;;;32.29;58.57;100764.09;5070557;27;65913;-35
2022/01/25 10:12:30;;;;;;;16.42;14.25;;;;;;;32.27;58.73;100772.44;5076852;27;69269;-36
2022/01/25 10:15:01;;;;;;;15.20;13.90;;;;;;;32.28;58.73;100767.84;5078183;27;66955;-35
2022/01/25 10:17:34;;;;;;;15.10;13.60;;;;;;;32.28;58.66;100774.09;5076678;27;69596;-35
2022/01/25 10:20:05;;;;;;;15.98;14.68;;;;;;;32.27;58.65;100767.03;5078724;27;65943;-35
2022/01/25 10:22:46;;;;;;;18.17;14.63;;;;;;;32.23;58.72;100776.72;5080055;27;70413;-35
2022/01/25 10:25:43;;;;;;;15.95;14.50;;;;;;;32.15;59.10;100784.31;5059765;27;66205;-36
2022/01/25 10:28:21;;;;;;;14.30;13.30;;;;;;;32.11;58.60;100766.88;5076623;27;70009;-35
2022/01/25 10:31:01;;;;;;;16.10;14.60;;;;;;;32.19;58.94;100796.38;5076285;27;65429;-36
2022/01/25 10:33:37;;;;;;;15.63;14.15;;;;;;;32.20;58.83;100798.03;5060589;28;69829;-35
2022/01/25 10:36:28;;;;;;;15.85;14.45;;;;;;;32.18;58.87;100786.56;5068342;27;66460;-35
2022/01/25 10:38:59;;;;;;;15.17;13.73;;;;;;;32.16;58.80;100796.84;5076423;27;69900;-36
2022/01/25 10:41:31;;;;;;;16.70;15.20;;;;;;;32.11;59.43;100791.28;5076639;27;65747;-35
2022/01/25 10:44:03;;;;;;;16.30;14.73;;;;;;;32.12;59.52;100803.78;5075422;27;69488;-36
2022/01/25 10:46:34;;;;;;;19.47;15.57;;;;;;;32.12;59.23;100806.50;5076542;27;67027;-36
2022/01/25 10:49:10;;;;;;;17.63;14.48;;;;;;;32.11;59.53;100799.44;5073368;27;69433;-35
2022/01/25 10:51:48;;;;;;;15.70;14.30;;;;;;;32.11;59.32;100804.84;5071355;27;65339;-35
2022/01/25 10:54:23;;;;;;;18.40;15.05;;;;;;;32.08;59.42;100803.44;5076075;27;70425;-36
2022/01/25 10:56:59;;;;;;;19.40;14.85;;;;;;;32.05;59.93;100806.59;5073716;27;66337;-35
2022/01/25 10:59:36;;;;;;;21.63;16.13;;;;;;;32.02;59.85;100807.88;5076741;27;69694;-36
2022/01/25 11:02:07;;;;;;;21.33;14.80;;;;;;;31.99;60.25;100805.63;5076642;27;66593;-36
2022/01/25 11:04:40;;;;;;;18.27;15.73;;;;;;;31.95;59.94;100803.59;5075261;27;69486;-36
2022/01/25 11:07:12;;;;;;;16.83;14.45;;;;;;;31.98;60.42;100805.84;5079714;27;66152;-36
2022/01/25 11:09:46;;;;;;;16.90;15.23;;;;;;;31.94;60.19;100802.78;5080729;27;68718;-36
2022/01/25 11:12:19;;;;;;;21.63;15.85;;;;;;;31.97;59.80;100809.63;5071728;27;66876;-35
2022/01/25 11:14:54;;;;;;;19.55;17.00;;;;;;;31.93;60.15;100809.28;5078162;27;70355;-36
2022/01/25 11:17:27;;;;;;;29.15;18.98;;;;;;;31.94;60.18;100810.91;5075446;27;64762;-35
2022/01/25 11:20:03;;;;;;;31.02;21.30;;;;;;;31.95;60.22;100807.13;5075722;27;69442;-36
2022/01/25 11:22:34;;;;;;;28.08;22.08;;;;;;;31.92;60.42;100806.78;5074793;27;66633;-36
2022/01/25 11:25:09;;;;;;;34.08;22.25;;;;;;;31.91;60.73;100816.81;5071824;27;70339;-35
2022/01/25 11:27:42;;;;;;;35.83;20.97;;;;;;;31.89;60.23;100816.16;5073049;27;65317;-35
2022/01/25 11:30:17;;;;;;;24.58;19.70;;;;;;;31.88;61.00;100811.00;5071774;27;70263;-36
2022/01/25 11:32:52;;;;;;;23.23;18.55;;;;;;;31.82;60.69;100804.59;5072471;27;65676;-35
2022/01/25 11:35:27;;;;;;;25.13;17.08;;;;;;;31.69;60.20;100793.91;5071978;27;70039;-35
2022/01/25 11:37:57;;;;;;;18.60;15.80;;;;;;;31.82;60.38;100818.16;5076835;27;65621;-35
2022/01/25 11:40:39;;;;;;;23.00;17.58;;;;;;;31.68;60.46;100811.22;5076761;27;70156;-36
2022/01/25 11:43:14;;;;;;;49.90;37.05;;;;;;;31.81;60.25;100827.34;5064956;27;66179;-36
2022/01/25 11:45:50;;;;;;;26.85;22.10;;;;;;;31.43;60.70;100766.06;5080372;27;70447;-35
2022/01/25 11:48:33;;;;;;;25.92;19.48;;;;;;;31.78;60.88;100816.94;5079302;27;65364;-36
2022/01/25 11:51:12;;;;;;;31.48;22.55;;;;;;;31.75;60.48;100811.97;5079368;27;69890;-36
2022/01/25 11:53:50;;;;;;;25.27;18.83;;;;;;;31.71;60.79;100816.22;5076242;27;65680;-35
2022/01/25 11:56:37;;;;;;;23.15;18.80;;;;;;;31.53;60.94;100792.63;5084814;27;69347;-36
2022/01/25 11:59:13;;;;;;;29.55;18.92;;;;;;;31.54;60.83;100795.13;5081217;27;66314;-36
2022/01/25 12:01:50;;;;;;;40.28;18.48;;;;;;;31.31;61.11;100767.84;5076640;27;70178;-36
2022/01/25 12:04:21;;;;;;;41.92;18.55;;;;;;;31.64;61.13;100839.84;5075766;27;66233;-35
2022/01/25 12:07:00;;;;;;;21.90;18.83;;;;;;;31.61;61.36;100833.81;5076980;27;70200;-35
2022/01/25 12:09:52;;;;;;;39.55;19.73;;;;;;;31.54;61.92;100837.69;5078768;27;66623;-36
2022/01/25 12:12:24;;;;;;;23.75;18.55;;;;;;;31.57;61.66;100839.94;5075297;27;70114;-37
2022/01/25 12:14:56;;;;;;;42.70;29.75;;;;;;;31.45;61.73;100815.44;5079008;27;65706;-36
2022/01/25 12:17:33;;;;;;;35.58;19.75;;;;;;;31.58;61.63;100838.88;5078441;27;70287;-37
2022/01/25 12:20:22;;;;;;;22.13;18.27;;;;;;;31.50;62.35;100841.88;5076123;27;66201;-38
2022/01/25 12:23:18;;;;;;;19.20;17.20;;;;;;;31.50;61.92;100848.13;5058648;27;69024;-36
2022/01/25 12:25:53;;;;;;;24.02;17.27;;;;;;;31.42;61.55;100840.28;5079427;27;66837;-36
2022/01/25 12:28:46;;;;;;;19.48;16.05;;;;;;;31.51;61.78;100857.94;5072923;27;69242;-36
2022/01/25 12:31:17;;;;;;;19.60;17.58;;;;;;;31.53;62.11;100855.81;5076248;27;67796;-37
2022/01/25 12:33:48;;;;;;;59.00;36.78;;;;;;;31.51;62.00;100863.38;5074773;27;69516;-37
2022/01/25 12:36:37;;;;;;;49.05;33.90;;;;;;;31.27;62.04;100837.94;5062034;27;65903;-37
2022/01/25 12:39:12;;;;;;;61.17;43.03;;;;;;;31.47;62.25;100864.84;5075298;27;70067;-37
2022/01/25 12:41:44;;;;;;;57.80;31.77;;;;;;;31.45;61.56;100883.22;5074478;27;66455;-37
2022/01/25 12:44:14;;;;;;;45.08;29.75;;;;;;;31.32;62.65;100883.34;5081016;27;69534;-36
2022/01/25 12:46:45;;;;;;;28.75;23.33;;;;;;;31.19;62.86;100878.03;5076796;27;66080;-37
2022/01/25 12:49:20;;;;;;;25.23;21.83;;;;;;;31.10;62.68;100880.22;5075457;27;69248;-37
2022/01/25 12:51:52;;;;;;;25.75;19.17;;;;;;;31.01;62.65;100881.50;5061852;28;65647;-37
2022/01/25 12:54:25;;;;;;;22.02;19.55;;;;;;;30.95;63.41;100891.34;5079114;27;70349;-36
2022/01/25 12:56:57;;;;;;;20.98;18.38;;;;;;;30.90;63.01;100881.19;5072276;27;65905;-37
2022/01/25 12:59:33;;;;;;;28.20;18.55;;;;;;;30.87;63.57;100886.22;5078215;27;70295;-35
2022/01/25 13:02:04;;;;;;;25.70;18.95;;;;;;;30.78;63.37;100884.78;5055676;28;65882;-37
2022/01/25 13:04:35;;;;;;;27.33;19.27;;;;;;;30.73;63.95;100894.41;5074318;27;70163;-36
2022/01/25 13:07:06;;;;;;;23.92;19.52;;;;;;;30.73;63.98;100894.41;5077322;27;66656;-37
2022/01/25 13:09:43;;;;;;;26.33;18.88;;;;;;;30.68;64.05;100907.78;5077711;27;69739;-37
2022/01/25 13:12:22;;;;;;;33.58;18.63;;;;;;;30.62;64.19;100900.53;5080516;27;66436;-37
2022/01/25 13:15:15;;;;;;;27.05;18.75;;;;;;;30.60;63.48;100909.91;5084930;27;70115;-36
2022/01/25 13:17:43;;;;;;;30.15;17.70;;;;;;;30.47;64.33;100886.47;5073487;27;66534;-40